Terminal Aerodrome Forecast
Issued by NWS

Home | Current Version | Previous Version | Text Only | Print | Product List | Glossary On
Versions: 1 2 3 4 5 6 7 8 9 10 11 12 13 14 15
081
FTUS43 KFGF 260520
TAFBJI
TAF
KBJI 260520Z 2606/2706 17004KT P6SM SCT060
     FM261000 00000KT P6SM VCTS BKN060CB
     FM261400 32004KT P6SM SCT100=

USA.gov is the U.S. government's official web portal to all federal, state and local government web resources and services.